Time;durP1;ratioP1;P1;durP2;ratioP2;P2;SDS_P1;SDS_P2;PMS_P1;PMS_P2;Temp;Humidity;BMP_temperature;BMP_pressure;BME280_temperature;BME280_humidity;BME280_pressure;Samples;Min_cycle;Max_cycle;Signal;HPM_P1;HPM_P2
2022/08/23 00:02:00;;;;;;;2.95;1.55;;;24.30;90.20;;;;;;4113476;28;20455;-67
2022/08/23 00:04:06;;;;;;;3.15;1.40;;;24.30;90.20;;;;;;4114041;28;20030;-67
2022/08/23 00:06:07;;;;;;;2.05;1.42;;;24.20;90.40;;;;;;4115341;28;20034;-67
2022/08/23 00:08:08;;;;;;;2.65;1.23;;;24.20;90.50;;;;;;4114683;28;20035;-67
2022/08/23 00:10:11;;;;;;;2.15;1.20;;;24.10;90.30;;;;;;4116898;28;20052;-67
2022/08/23 00:12:18;;;;;;;2.83;1.10;;;24.10;90.10;;;;;;4111996;28;20054;-67
2022/08/23 00:14:30;;;;;;;2.03;1.38;;;24.10;90.50;;;;;;4115630;28;20066;-67
2022/08/23 00:16:30;;;;;;;2.35;1.23;;;24.00;90.40;;;;;;4112468;28;20030;-66
2022/08/23 00:18:31;;;;;;;2.97;1.30;;;24.00;90.10;;;;;;4115141;28;20122;-66
2022/08/23 00:20:32;;;;;;;3.47;1.40;;;24.00;90.10;;;;;;4112546;28;20457;-66
2022/08/23 00:22:33;;;;;;;3.38;1.50;;;24.00;90.80;;;;;;4115274;28;20064;-66
2022/08/23 00:24:35;;;;;;;1.58;1.23;;;23.90;89.80;;;;;;4119746;28;20061;-67
2022/08/23 00:27:13;;;;;;;2.03;1.50;;;23.90;90.20;;;;;;4117133;28;20081;-66
2022/08/23 00:29:15;;;;;;;2.28;1.27;;;23.90;90.90;;;;;;4109083;28;20034;-67
2022/08/23 00:31:17;;;;;;;4.00;1.40;;;23.80;90.60;;;;;;4109899;28;20030;-67
2022/08/23 00:33:17;;;;;;;3.70;1.60;;;23.80;90.00;;;;;;4115593;28;20034;-67
2022/08/23 00:35:19;;;;;;;1.52;1.10;;;23.80;90.40;;;;;;4115799;28;20505;-67
2022/08/23 00:37:20;;;;;;;2.28;1.35;;;23.80;91.70;;;;;;4116562;28;20034;-67
2022/08/23 00:39:21;;;;;;;2.20;1.35;;;23.70;90.30;;;;;;4103280;28;20026;-66
2022/08/23 00:41:22;;;;;;;2.63;1.33;;;23.70;90.70;;;;;;4106479;28;20034;-67
2022/08/23 00:48:45;;;;;;;1.73;1.35;;;23.50;90.70;;;;;;4112251;28;20418;-67
2022/08/23 00:50:53;;;;;;;1.90;1.33;;;23.50;90.80;;;;;;4112789;28;20093;-67
2022/08/23 00:53:16;;;;;;;2.25;1.40;;;23.50;90.90;;;;;;4113559;28;20408;-66
2022/08/23 00:55:18;;;;;;;2.45;1.45;;;23.40;90.80;;;;;;4115704;28;20386;-67
2022/08/23 00:57:20;;;;;;;3.45;1.42;;;23.30;90.70;;;;;;4112988;28;20397;-67
2022/08/23 00:59:20;;;;;;;2.03;1.40;;;23.30;91.00;;;;;;4114998;28;20039;-67
2022/08/23 01:01:21;;;;;;;2.85;1.30;;;23.30;91.40;;;;;;4111887;28;20031;-66
2022/08/23 01:03:25;;;;;;;2.80;1.45;;;23.30;91.50;;;;;;4113899;28;20031;-67
2022/08/23 01:05:39;;;;;;;4.32;1.88;;;23.20;92.20;;;;;;4113451;28;20150;-66
2022/08/23 01:07:56;;;;;;;2.17;1.48;;;23.20;91.50;;;;;;4116696;28;20038;-67
2022/08/23 01:10:00;;;;;;;2.25;1.40;;;23.10;91.50;;;;;;4110404;28;20057;-67
2022/08/23 01:12:07;;;;;;;3.90;1.42;;;23.10;91.20;;;;;;4109385;28;20054;-67
2022/08/23 01:14:39;;;;;;;3.13;1.77;;;23.10;91.40;;;;;;4114618;28;20493;-67
2022/08/23 01:16:48;;;;;;;2.38;1.33;;;23.00;91.20;;;;;;4087610;28;20404;-66
2022/08/23 01:18:50;;;;;;;3.15;1.60;;;23.00;91.60;;;;;;4115480;28;20060;-67
2022/08/23 01:21:22;;;;;;;4.90;1.75;;;22.90;92.40;;;;;;4110145;28;20094;-66
2022/08/23 01:23:32;;;;;;;3.00;1.33;;;22.90;92.60;;;;;;4114809;28;20042;-67
2022/08/23 01:25:33;;;;;;;2.08;1.45;;;22.90;92.60;;;;;;4114612;28;20113;-67
2022/08/23 01:27:36;;;;;;;2.55;1.48;;;22.90;93.10;;;;;;4112350;28;20027;-66
2022/08/23 01:29:37;;;;;;;3.17;1.23;;;22.80;92.30;;;;;;4110259;28;20042;-67
2022/08/23 01:31:38;;;;;;;2.15;1.50;;;22.80;91.80;;;;;;4096978;28;20398;-67
2022/08/23 01:33:40;;;;;;;2.42;1.52;;;22.80;91.50;;;;;;4092009;28;20036;-67
2022/08/23 01:35:53;;;;;;;3.15;1.60;;;22.70;91.50;;;;;;4109745;28;20506;-67
2022/08/23 01:37:53;;;;;;;4.35;1.50;;;22.70;91.50;;;;;;4111635;28;20467;-67
2022/08/23 01:39:54;;;;;;;2.20;1.48;;;22.70;91.70;;;;;;4113040;28;20038;-66
2022/08/23 01:41:54;;;;;;;2.60;1.50;;;22.60;91.60;;;;;;4111000;28;20565;-67
2022/08/23 01:43:55;;;;;;;2.30;1.50;;;22.60;91.80;;;;;;4114165;28;20030;-67
2022/08/23 01:45:56;;;;;;;4.10;1.75;;;22.60;92.40;;;;;;4117035;28;20038;-67
2022/08/23 01:47:57;;;;;;;2.63;1.65;;;22.60;92.20;;;;;;4113997;28;20026;-67
2022/08/23 01:49:57;;;;;;;1.35;1.25;;;22.60;91.80;;;;;;4114846;28;20524;-67
2022/08/23 01:51:59;;;;;;;2.65;1.73;;;22.60;92.50;;;;;;4112076;28;20062;-67
2022/08/23 01:53:59;;;;;;;3.08;1.50;;;22.50;92.20;;;;;;4119435;28;20532;-67
2022/08/23 01:56:02;;;;;;;2.28;1.42;;;22.50;92.60;;;;;;4118811;28;20058;-67
2022/08/23 01:58:04;;;;;;;3.35;1.70;;;22.50;92.10;;;;;;4113018;28;20035;-67
2022/08/23 02:00:07;;;;;;;4.88;1.90;;;22.50;93.00;;;;;;4112594;28;20498;-68
2022/08/23 02:02:07;;;;;;;1.83;1.40;;;22.40;92.00;;;;;;4114828;28;20030;-67
2022/08/23 02:04:08;;;;;;;2.72;1.35;;;22.40;92.40;;;;;;4118686;28;20073;-66
2022/08/23 02:06:08;;;;;;;2.42;1.75;;;22.40;92.50;;;;;;4118014;28;20565;-67
2022/08/23 02:10:28;;;;;;;4.32;1.50;;;22.30;92.70;;;;;;4109681;28;20572;-67
2022/08/23 02:12:29;;;;;;;2.75;1.40;;;22.30;92.60;;;;;;4117092;28;20073;-67
2022/08/23 02:14:30;;;;;;;2.03;1.17;;;22.30;92.30;;;;;;4116515;28;20029;-66
2022/08/23 02:16:39;;;;;;;5.18;1.88;;;22.30;93.00;;;;;;4117970;28;20049;-66
2022/08/23 02:18:40;;;;;;;2.95;1.58;;;22.20;93.00;;;;;;4113198;28;20085;-67
2022/08/23 02:20:45;;;;;;;2.55;1.40;;;22.20;93.50;;;;;;4114426;28;20031;-68
2022/08/23 02:22:46;;;;;;;2.45;1.27;;;22.20;94.30;;;;;;4113905;28;20045;-67
2022/08/23 02:24:47;;;;;;;2.47;1.40;;;22.20;93.50;;;;;;4121260;28;20030;-67
2022/08/23 02:26:51;;;;;;;2.83;1.60;;;22.10;94.00;;;;;;4113892;28;20046;-66
2022/08/23 02:28:52;;;;;;;2.13;1.38;;;22.10;92.90;;;;;;4117383;28;20043;-66
2022/08/23 02:30:53;;;;;;;2.08;1.30;;;22.10;92.50;;;;;;4114753;28;20063;-67
2022/08/23 02:32:54;;;;;;;5.30;1.42;;;22.00;92.20;;;;;;4115448;28;20062;-67
2022/08/23 02:34:56;;;;;;;2.05;1.52;;;22.00;92.80;;;;;;4115392;28;20054;-66
2022/08/23 02:36:57;;;;;;;2.30;1.50;;;22.00;93.10;;;;;;4119725;28;20034;-67
2022/08/23 02:38:58;;;;;;;3.28;1.60;;;21.90;92.80;;;;;;4117133;28;20035;-66
2022/08/23 02:41:00;;;;;;;2.33;1.52;;;21.90;93.30;;;;;;4110459;28;20035;-66
2022/08/23 02:43:01;;;;;;;3.45;1.55;;;21.90;94.10;;;;;;4116058;28;20482;-66
2022/08/23 02:45:02;;;;;;;2.38;1.45;;;21.90;93.80;;;;;;4120939;28;20039;-67
2022/08/23 02:47:06;;;;;;;1.90;1.23;;;21.90;93.70;;;;;;4115129;28;20379;-66
2022/08/23 02:49:07;;;;;;;3.67;1.80;;;21.80;93.30;;;;;;4115404;28;20086;-67
2022/08/23 02:51:08;;;;;;;5.80;1.55;;;21.80;94.40;;;;;;4111984;28;20045;-67
2022/08/23 02:53:09;;;;;;;4.35;1.83;;;21.80;93.70;;;;;;4118016;28;20109;-67
2022/08/23 02:55:10;;;;;;;2.95;1.30;;;21.80;92.80;;;;;;4119712;28;20058;-69
2022/08/23 02:57:10;;;;;;;3.17;1.50;;;21.70;92.90;;;;;;4116929;28;20303;-67
2022/08/23 02:59:12;;;;;;;2.17;1.42;;;21.70;93.30;;;;;;4115162;28;20035;-67
2022/08/23 03:01:28;;;;;;;3.75;1.65;;;21.70;93.80;;;;;;4114027;28;20038;-66
2022/08/23 03:03:29;;;;;;;3.67;1.70;;;21.60;94.10;;;;;;4100350;28;20358;-66
2022/08/23 03:05:30;;;;;;;2.60;1.33;;;21.60;93.60;;;;;;4116341;28;20049;-66
2022/08/23 03:07:30;;;;;;;2.08;1.30;;;21.60;93.80;;;;;;4115885;28;20482;-67
2022/08/23 03:09:31;;;;;;;3.00;1.73;;;21.50;94.10;;;;;;4104322;28;20039;-66
2022/08/23 03:11:32;;;;;;;2.88;1.60;;;21.50;94.50;;;;;;4112716;28;20115;-66
2022/08/23 03:13:33;;;;;;;2.38;1.58;;;21.50;94.20;;;;;;4117731;28;20043;-67
2022/08/23 03:15:33;;;;;;;2.75;1.75;;;21.50;94.50;;;;;;4118756;28;20044;-66
2022/08/23 03:17:35;;;;;;;4.00;1.70;;;21.50;93.90;;;;;;4114878;28;20031;-67
2022/08/23 03:19:35;;;;;;;3.50;1.90;;;21.50;94.90;;;;;;4115050;28;20049;-66
2022/08/23 03:21:37;;;;;;;1.70;1.42;;;21.40;94.70;;;;;;4113054;28;20030;-67
2022/08/23 03:23:38;;;;;;;3.75;1.70;;;21.40;94.40;;;;;;4116351;28;20031;-67
2022/08/23 03:25:39;;;;;;;3.50;1.88;;;21.40;95.10;;;;;;4114533;28;20125;-67
2022/08/23 03:27:39;;;;;;;2.03;1.50;;;21.30;94.70;;;;;;4116592;28;20109;-67
2022/08/23 03:29:40;;;;;;;5.10;2.00;;;21.30;95.70;;;;;;4113896;28;20038;-67
2022/08/23 03:31:42;;;;;;;2.47;1.40;;;21.30;94.90;;;;;;4112028;28;20081;-67
2022/08/23 03:33:42;;;;;;;2.47;1.52;;;21.30;95.70;;;;;;4118952;28;20034;-67
2022/08/23 03:35:43;;;;;;;3.55;1.65;;;21.20;95.60;;;;;;4118855;28;20123;-67
2022/08/23 03:37:44;;;;;;;5.28;1.77;;;21.20;95.80;;;;;;4117540;28;20035;-67
2022/08/23 03:39:44;;;;;;;2.65;1.50;;;21.20;95.20;;;;;;4115751;28;20482;-66
2022/08/23 03:41:45;;;;;;;3.15;1.67;;;21.10;94.60;;;;;;4113414;28;20581;-67
2022/08/23 03:43:46;;;;;;;8.90;1.80;;;21.10;95.30;;;;;;4118081;28;20030;-66
2022/08/23 03:45:47;;;;;;;3.25;1.77;;;21.10;95.60;;;;;;4116800;28;20092;-67
2022/08/23 03:47:48;;;;;;;3.55;1.90;;;21.10;98.20;;;;;;4111655;28;20039;-67
2022/08/23 03:49:48;;;;;;;2.47;1.52;;;21.10;96.40;;;;;;4114426;28;20287;-67
2022/08/23 03:51:49;;;;;;;4.15;1.60;;;21.10;96.20;;;;;;4110416;28;20078;-67
2022/08/23 03:53:50;;;;;;;3.00;1.70;;;21.10;95.60;;;;;;4120841;28;20049;-67
2022/08/23 03:55:53;;;;;;;2.03;1.50;;;21.10;96.70;;;;;;4112938;28;20027;-66
2022/08/23 03:57:54;;;;;;;1.77;1.35;;;21.10;96.60;;;;;;4112156;28;20039;-67
2022/08/23 03:59:55;;;;;;;2.53;1.70;;;21.10;96.40;;;;;;4110932;28;20042;-67
2022/08/23 04:01:55;;;;;;;3.50;1.70;;;21.10;96.30;;;;;;4109835;28;20094;-67
2022/08/23 04:03:59;;;;;;;4.80;1.90;;;21.00;96.10;;;;;;4111836;28;20098;-67
2022/08/23 04:05:59;;;;;;;3.30;1.77;;;21.00;95.40;;;;;;4111019;28;20042;-67
2022/08/23 04:08:07;;;;;;;3.05;1.70;;;21.00;95.90;;;;;;4111901;28;20490;-67
2022/08/23 04:10:08;;;;;;;2.90;1.60;;;20.90;96.00;;;;;;4108397;28;20074;-67
2022/08/23 04:12:09;;;;;;;3.47;2.00;;;20.90;95.60;;;;;;4109874;28;21667;-67
2022/08/23 04:14:11;;;;;;;3.30;2.00;;;20.90;96.20;;;;;;4110008;28;20082;-67
2022/08/23 04:16:13;;;;;;;2.40;1.92;;;20.90;96.70;;;;;;4110720;28;20034;-66
2022/08/23 04:18:14;;;;;;;3.92;2.17;;;20.90;96.00;;;;;;4111817;28;20031;-66
2022/08/23 04:20:15;;;;;;;4.28;2.13;;;20.80;95.80;;;;;;4109296;28;20039;-67
2022/08/23 04:22:18;;;;;;;3.20;1.90;;;20.80;95.80;;;;;;4110013;28;20031;-67
2022/08/23 04:24:19;;;;;;;3.53;1.83;;;20.80;95.60;;;;;;4110556;28;20055;-67
2022/08/23 04:26:20;;;;;;;3.25;1.88;;;20.80;96.30;;;;;;4110241;28;20031;-66
2022/08/23 04:28:22;;;;;;;3.13;1.73;;;20.70;96.30;;;;;;4111390;28;20110;-67
2022/08/23 04:30:22;;;;;;;2.77;1.87;;;20.70;96.50;;;;;;4107421;28;20058;-67
2022/08/23 04:32:23;;;;;;;2.03;1.50;;;20.70;96.40;;;;;;4110314;28;20106;-66
2022/08/23 04:34:23;;;;;;;2.63;1.45;;;20.70;96.80;;;;;;4111455;28;25018;-67
2022/08/23 04:36:24;;;;;;;2.00;1.70;;;20.70;95.90;;;;;;4110892;28;20474;-67
2022/08/23 04:38:26;;;;;;;3.45;1.63;;;20.70;96.70;;;;;;4111567;28;20027;-67
2022/08/23 04:42:46;;;;;;;2.42;1.70;;;20.70;96.80;;;;;;4110201;28;20039;-67
2022/08/23 04:44:46;;;;;;;2.42;1.75;;;20.70;96.70;;;;;;4109477;28;20073;-67
2022/08/23 04:46:47;;;;;;;3.33;1.90;;;20.60;96.10;;;;;;4110408;28;20057;-67
2022/08/23 04:48:48;;;;;;;2.33;1.50;;;20.70;95.90;;;;;;4109456;28;20134;-67
2022/08/23 04:50:49;;;;;;;3.80;1.90;;;20.60;96.20;;;;;;4107568;28;20114;-66
2022/08/23 04:52:49;;;;;;;3.35;1.75;;;20.60;96.70;;;;;;4110819;28;20085;-67
2022/08/23 04:54:51;;;;;;;2.60;1.50;;;20.60;96.80;;;;;;4111402;28;20039;-66
2022/08/23 04:56:52;;;;;;;2.53;1.70;;;20.60;97.00;;;;;;4109680;28;20067;-67
2022/08/23 04:58:52;;;;;;;3.80;1.83;;;20.60;96.50;;;;;;4110307;28;20382;-67
2022/08/23 05:00:54;;;;;;;4.85;1.80;;;20.60;96.10;;;;;;4109164;28;20038;-66
2022/08/23 05:02:55;;;;;;;3.30;2.00;;;20.60;96.00;;;;;;4110157;28;20046;-67
2022/08/23 05:04:55;;;;;;;3.90;1.67;;;20.60;96.60;;;;;;4111414;28;20050;-67
2022/08/23 05:06:56;;;;;;;5.57;1.90;;;20.60;95.90;;;;;;4109871;28;20034;-66
2022/08/23 05:08:57;;;;;;;2.97;1.95;;;20.70;96.10;;;;;;4110324;28;20034;-65
2022/08/23 05:11:02;;;;;;;3.50;1.90;;;20.60;96.60;;;;;;4107794;28;20035;-67
2022/08/23 05:13:03;;;;;;;3.90;1.50;;;20.60;97.30;;;;;;4110214;28;20039;-67
2022/08/23 05:15:10;;;;;;;2.50;1.52;;;20.70;96.40;;;;;;4105691;28;20047;-68
2022/08/23 05:17:11;;;;;;;3.05;1.98;;;20.60;96.40;;;;;;4109143;28;20034;-67
2022/08/23 05:19:12;;;;;;;4.38;2.40;;;20.60;97.10;;;;;;4106265;28;20051;-66
2022/08/23 05:21:18;;;;;;;5.40;2.60;;;20.60;97.30;;;;;;4108238;28;20054;-66
2022/08/23 05:23:19;;;;;;;6.53;3.25;;;20.70;98.00;;;;;;4111525;28;20031;-66
2022/08/23 05:25:20;;;;;;;4.55;2.50;;;20.70;97.80;;;;;;4110400;28;20031;-66
2022/08/23 05:27:21;;;;;;;4.95;2.63;;;20.70;98.50;;;;;;4111632;28;20034;-66
2022/08/23 05:29:22;;;;;;;4.05;2.65;;;20.70;97.70;;;;;;4111243;28;20046;-67
2022/08/23 05:31:25;;;;;;;5.45;2.67;;;20.70;98.10;;;;;;4109001;28;20458;-68
2022/08/23 05:33:27;;;;;;;4.30;2.88;;;20.70;98.50;;;;;;4108624;28;20030;-69
2022/08/23 05:35:27;;;;;;;3.60;2.70;;;20.70;98.80;;;;;;4110445;28;20043;-68
2022/08/23 05:37:28;;;;;;;3.88;2.63;;;20.80;98.20;;;;;;4111904;28;20110;-70
2022/08/23 05:39:28;;;;;;;3.30;2.30;;;20.80;97.90;;;;;;4111143;28;20034;-69
2022/08/23 05:41:29;;;;;;;4.72;2.20;;;20.80;98.60;;;;;;4112922;28;20039;-69
2022/08/23 05:43:30;;;;;;;4.60;2.60;;;20.70;97.60;;;;;;4113669;28;20425;-68
2022/08/23 05:45:31;;;;;;;2.88;1.90;;;20.80;98.50;;;;;;4112597;28;20031;-68
2022/08/23 05:47:31;;;;;;;4.13;2.08;;;20.80;99.20;;;;;;4113627;28;20035;-69
2022/08/23 05:49:35;;;;;;;3.67;2.08;;;20.80;99.20;;;;;;4107563;28;20046;-69
2022/08/23 05:51:36;;;;;;;2.83;2.00;;;20.80;98.90;;;;;;4109589;28;20474;-69
2022/08/23 05:53:38;;;;;;;3.05;2.15;;;20.80;98.90;;;;;;4109733;28;20030;-68
2022/08/23 05:55:38;;;;;;;3.35;2.17;;;20.80;98.70;;;;;;4107928;28;20047;-69
2022/08/23 05:57:40;;;;;;;4.55;2.33;;;20.90;99.90;;;;;;4110534;28;20560;-68
2022/08/23 05:59:40;;;;;;;4.70;2.30;;;20.90;99.80;;;;;;4109128;28;20692;-68
2022/08/23 06:01:42;;;;;;;3.55;2.50;;;20.90;99.70;;;;;;4108468;28;20035;-68
2022/08/23 06:03:43;;;;;;;6.50;2.80;;;20.90;99.80;;;;;;4109252;28;20035;-68
2022/08/23 06:05:43;;;;;;;5.22;3.00;;;21.00;99.90;;;;;;4109147;28;20141;-68
2022/08/23 06:07:44;;;;;;;10.55;4.90;;;21.00;99.90;;;;;;4109622;28;20122;-69
2022/08/23 06:09:45;;;;;;;11.40;4.97;;;21.10;99.90;;;;;;4105065;28;20041;-68
2022/08/23 06:11:47;;;;;;;9.68;4.80;;;21.10;99.70;;;;;;4107212;28;20039;-69
2022/08/23 06:13:53;;;;;;;10.05;4.10;;;21.10;99.90;;;;;;4109473;28;20054;-70
2022/08/23 06:15:54;;;;;;;9.80;4.55;;;21.10;99.70;;;;;;4108452;28;20431;-70
2022/08/23 06:17:55;;;;;;;11.23;5.70;;;21.20;99.90;;;;;;4111248;28;20551;-69
2022/08/23 06:19:56;;;;;;;9.30;5.25;;;21.20;99.70;;;;;;4109344;28;20038;-70
2022/08/23 06:21:56;;;;;;;14.70;5.10;;;21.20;99.90;;;;;;4110205;28;20033;-69
2022/08/23 06:23:57;;;;;;;9.00;5.00;;;21.30;99.70;;;;;;4109313;28;20069;-70
2022/08/23 06:26:00;;;;;;;12.00;5.72;;;21.40;99.90;;;;;;4108307;28;20027;-69
2022/08/23 06:28:01;;;;;;;12.02;5.85;;;21.40;99.60;;;;;;4110650;28;20043;-73
2022/08/23 06:30:02;;;;;;;9.80;5.30;;;21.40;99.90;;;;;;4108532;28;20101;-73
2022/08/23 06:32:04;;;;;;;11.98;5.68;;;21.50;99.10;;;;;;4108776;28;20051;-73
2022/08/23 06:34:05;;;;;;;9.17;4.87;;;21.50;98.80;;;;;;4109412;28;20050;-72
2022/08/23 06:36:16;;;;;;;8.68;4.57;;;21.60;99.40;;;;;;4108845;28;20097;-71
2022/08/23 06:38:17;;;;;;;9.50;4.78;;;21.70;99.40;;;;;;4110899;28;20090;-69
2022/08/23 06:40:17;;;;;;;10.10;5.30;;;21.70;98.50;;;;;;4107696;28;22028;-69
2022/08/23 06:42:18;;;;;;;10.40;4.82;;;21.80;98.40;;;;;;4109841;28;20043;-69
2022/08/23 06:44:19;;;;;;;9.77;5.32;;;21.90;98.50;;;;;;4109602;28;20035;-68
2022/08/23 06:46:22;;;;;;;8.30;4.43;;;22.10;98.50;;;;;;4108675;28;20041;-68
2022/08/23 06:48:23;;;;;;;11.73;4.43;;;22.30;97.90;;;;;;4107896;28;20034;-68
2022/08/23 06:50:24;;;;;;;9.63;4.35;;;22.60;97.50;;;;;;4108162;28;20042;-69
2022/08/23 06:52:27;;;;;;;8.95;4.05;;;23.00;96.80;;;;;;4109857;28;20478;-69
2022/08/23 06:54:29;;;;;;;;;;;23.40;97.00;;;;;;4109380;28;20513;-69
2022/08/23 06:56:29;;;;;;;7.18;4.00;;;23.80;96.30;;;;;;4109549;28;19910;-70
2022/08/23 06:58:30;;;;;;;7.03;4.25;;;24.20;95.50;;;;;;4108326;28;20505;-69
2022/08/23 07:00:31;;;;;;;7.13;3.33;;;24.60;94.80;;;;;;4107857;28;20114;-69
2022/08/23 07:02:31;;;;;;;7.32;3.90;;;25.00;93.80;;;;;;4112134;28;20039;-69
2022/08/23 07:04:36;;;;;;;6.07;3.63;;;25.40;93.20;;;;;;4108992;28;20035;-70
2022/08/23 07:06:37;;;;;;;5.30;3.00;;;25.80;92.70;;;;;;4108933;28;20039;-69
2022/08/23 07:08:38;;;;;;;10.48;3.65;;;26.10;92.50;;;;;;4111129;28;20852;-69
2022/08/23 07:10:39;;;;;;;6.22;3.25;;;26.50;91.20;;;;;;4108086;28;20061;-69
2022/08/23 07:12:41;;;;;;;7.60;3.80;;;26.80;91.00;;;;;;4108077;28;20136;-69
2022/08/23 07:14:42;;;;;;;;;;;27.10;90.00;;;;;;4094060;28;20039;-69
2022/08/23 07:16:47;;;;;;;5.68;3.20;;;27.30;89.10;;;;;;4106410;28;20373;-69
2022/08/23 07:18:51;;;;;;;6.60;3.40;;;27.50;89.10;;;;;;4106930;28;20030;-69
2022/08/23 07:21:02;;;;;;;6.13;3.45;;;27.60;86.80;;;;;;4107303;28;20023;-70
2022/08/23 07:23:02;;;;;;;7.80;3.65;;;27.70;86.10;;;;;;4109742;28;20035;-69
2022/08/23 07:25:03;;;;;;;11.02;3.28;;;27.80;86.70;;;;;;4106317;28;20031;-70
2022/08/23 07:27:07;;;;;;;5.53;3.20;;;27.90;86.70;;;;;;4106006;28;20509;-70
2022/08/23 07:29:10;;;;;;;5.25;2.95;;;28.00;85.20;;;;;;4106092;28;20046;-69
2022/08/23 07:31:19;;;;;;;7.70;3.60;;;28.00;83.90;;;;;;4106581;28;20035;-69
2022/08/23 07:33:20;;;;;;;6.38;3.50;;;28.00;84.00;;;;;;4108307;28;20031;-70
2022/08/23 07:35:21;;;;;;;5.13;2.95;;;28.00;83.60;;;;;;4105845;28;20441;-70
2022/08/23 07:37:22;;;;;;;4.45;3.10;;;28.00;83.70;;;;;;4108344;28;20035;-70
2022/08/23 07:39:25;;;;;;;6.05;3.13;;;28.00;84.30;;;;;;4104902;28;20252;-69
2022/08/23 07:41:29;;;;;;;6.50;2.97;;;28.10;84.90;;;;;;4105017;28;20038;-70
2022/08/23 07:43:33;;;;;;;4.55;2.95;;;28.10;84.30;;;;;;4110699;28;20121;-70
2022/08/23 07:45:39;;;;;;;6.57;3.13;;;28.10;83.50;;;;;;4106047;28;20034;-70
2022/08/23 07:47:41;;;;;;;9.52;3.53;;;28.20;84.80;;;;;;4110942;28;20065;-71
2022/08/23 07:49:42;;;;;;;6.78;3.30;;;28.10;84.40;;;;;;4106292;28;20042;-71
2022/08/23 07:51:46;;;;;;;7.68;3.58;;;28.20;83.90;;;;;;4108089;28;20023;-69
2022/08/23 07:53:47;;;;;;;5.60;3.28;;;28.10;82.50;;;;;;4111611;28;20113;-69
2022/08/23 07:55:48;;;;;;;5.43;3.30;;;28.10;82.50;;;;;;4111674;28;20533;-69
2022/08/23 07:57:49;;;;;;;4.97;2.70;;;28.10;82.90;;;;;;4111453;28;20486;-70
2022/08/23 07:59:49;;;;;;;6.63;2.50;;;28.20;82.50;;;;;;4109384;28;20043;-69
2022/08/23 08:01:50;;;;;;;7.97;2.47;;;28.20;82.60;;;;;;4102622;28;20169;-69
2022/08/23 08:03:52;;;;;;;6.38;2.80;;;28.20;82.60;;;;;;4111379;28;20043;-69
2022/08/23 08:05:56;;;;;;;5.70;2.67;;;28.30;83.30;;;;;;4111186;28;20031;-69
2022/08/23 08:07:57;;;;;;;4.60;2.20;;;28.30;82.90;;;;;;4111874;28;20089;-69
2022/08/23 08:09:57;;;;;;;10.90;3.17;;;28.40;82.70;;;;;;4110093;28;20043;-68
2022/08/23 08:11:58;;;;;;;5.63;3.03;;;28.40;81.20;;;;;;4111097;28;20050;-69
2022/08/23 08:14:00;;;;;;;3.80;2.38;;;28.40;80.70;;;;;;4111164;28;20038;-69
2022/08/23 08:16:01;;;;;;;4.75;2.42;;;28.40;81.20;;;;;;4110963;28;20034;-69
2022/08/23 08:18:02;;;;;;;5.35;2.25;;;28.40;81.90;;;;;;4111207;28;20520;-69
2022/08/23 08:20:03;;;;;;;6.43;2.85;;;28.40;81.50;;;;;;4109549;28;20031;-69
2022/08/23 08:22:03;;;;;;;4.55;2.75;;;28.50;81.60;;;;;;4111916;28;20042;-69
2022/08/23 08:24:06;;;;;;;3.72;2.33;;;28.50;80.60;;;;;;4110838;28;20050;-69
2022/08/23 08:26:07;;;;;;;;;;;28.50;82.50;;;;;;4110718;28;20493;-69
2022/08/23 08:28:08;;;;;;;3.85;2.40;;;28.50;80.00;;;;;;4111716;28;19910;-69
2022/08/23 08:30:09;;;;;;;4.78;2.78;;;28.60;81.50;;;;;;4107410;28;20035;-70
2022/08/23 08:32:10;;;;;;;3.83;2.20;;;28.60;79.60;;;;;;4111977;28;20085;-69
2022/08/23 08:34:12;;;;;;;5.43;3.00;;;28.60;79.90;;;;;;4110906;28;20031;-69
2022/08/23 08:36:27;;;;;;;3.72;2.55;;;28.60;80.20;;;;;;4109962;28;20419;-69
2022/08/23 08:38:28;;;;;;;6.18;2.60;;;28.70;81.80;;;;;;4110822;28;20043;-70
2022/08/23 08:40:32;;;;;;;4.55;2.75;;;28.60;80.90;;;;;;4108089;28;20113;-69
2022/08/23 08:42:50;;;;;;;5.03;2.53;;;28.70;80.60;;;;;;4111016;28;20031;-69
2022/08/23 08:44:56;;;;;;;3.60;2.55;;;28.80;80.50;;;;;;4100697;28;20042;-69
2022/08/23 08:46:58;;;;;;;7.53;3.25;;;28.80;81.10;;;;;;4098327;28;20034;-72
2022/08/23 08:49:03;;;;;;;9.88;3.58;;;28.90;80.10;;;;;;4108180;28;20039;-70
2022/08/23 08:51:18;;;;;;;4.55;2.58;;;28.90;80.40;;;;;;4103277;28;20038;-69
2022/08/23 08:53:35;;;;;;;6.15;2.65;;;28.90;80.50;;;;;;4103810;28;20039;-70
2022/08/23 08:55:41;;;;;;;4.65;2.67;;;28.90;80.30;;;;;;4106812;28;20050;-69
2022/08/23 08:57:47;;;;;;;6.82;3.33;;;29.00;81.00;;;;;;4107464;28;20026;-69
2022/08/23 08:59:58;;;;;;;7.45;3.65;;;29.00;81.20;;;;;;4106691;28;20043;-68
2022/08/23 09:01:58;;;;;;;6.65;2.85;;;29.00;79.90;;;;;;4108010;28;20081;-70
2022/08/23 09:04:00;;;;;;;5.80;3.22;;;29.10;81.00;;;;;;4107319;28;20050;-70
2022/08/23 09:06:15;;;;;;;7.18;3.65;;;29.10;79.80;;;;;;4105442;28;20386;-72
2022/08/23 09:08:41;;;;;;;5.63;3.03;;;29.10;80.80;;;;;;4106956;28;20391;-71
2022/08/23 09:11:21;;;;;;;6.18;3.33;;;29.20;79.90;;;;;;4107089;28;20232;-71
2022/08/23 09:14:03;;;;;;;6.60;2.78;;;29.20;80.80;;;;;;4078190;28;20087;-71
2022/08/23 09:16:28;;;;;;;9.98;4.25;;;29.30;80.40;;;;;;4078860;28;20098;-70
2022/08/23 09:18:33;;;;;;;9.57;4.07;;;29.30;79.50;;;;;;4105539;28;20738;-71
2022/08/23 09:20:34;;;;;;;6.28;3.95;;;29.30;80.80;;;;;;4105910;28;20034;-71
2022/08/23 09:22:45;;;;;;;8.52;3.80;;;29.40;79.10;;;;;;4108023;28;20038;-72
2022/08/23 09:24:46;;;;;;;9.18;4.30;;;29.40;79.30;;;;;;4106638;28;20140;-72
2022/08/23 09:26:47;;;;;;;8.75;3.70;;;29.40;77.70;;;;;;4107361;28;20039;-71
2022/08/23 09:28:54;;;;;;;6.55;3.65;;;29.30;78.00;;;;;;4107596;28;20094;-71
2022/08/23 09:30:57;;;;;;;8.95;3.45;;;29.30;77.90;;;;;;4106691;28;20065;-70
2022/08/23 09:33:18;;;;;;;7.00;3.78;;;29.40;77.40;;;;;;4104428;28;20039;-70
2022/08/23 09:35:20;;;;;;;5.60;3.50;;;29.40;79.60;;;;;;4104273;28;20110;-70
2022/08/23 09:37:23;;;;;;;8.07;3.50;;;29.40;76.90;;;;;;4107123;28;21114;-71
2022/08/23 09:39:28;;;;;;;6.15;3.20;;;29.40;80.00;;;;;;4106739;28;20491;-71
2022/08/23 09:41:35;;;;;;;6.43;3.53;;;29.50;79.20;;;;;;4107912;28;20522;-71
2022/08/23 09:43:47;;;;;;;6.35;2.90;;;29.50;77.80;;;;;;4106966;28;20031;-71
2022/08/23 09:45:47;;;;;;;7.50;2.90;;;29.50;78.60;;;;;;4107787;28;20107;-71
2022/08/23 09:47:48;;;;;;;7.53;2.83;;;29.60;76.80;;;;;;4104495;28;20065;-71
2022/08/23 09:49:50;;;;;;;6.97;3.35;;;29.60;76.70;;;;;;4105551;28;20081;-71
2022/08/23 09:51:54;;;;;;;5.97;2.50;;;29.70;76.70;;;;;;4106020;28;20121;-71
2022/08/23 09:54:30;;;;;;;4.85;2.58;;;29.70;77.50;;;;;;4107598;28;20269;-70
2022/08/23 09:56:36;;;;;;;6.82;3.22;;;29.80;78.00;;;;;;4102634;28;20636;-70
2022/08/23 09:58:43;;;;;;;4.03;2.30;;;29.80;76.70;;;;;;4106326;28;20125;-71
2022/08/23 10:00:45;;;;;;;6.35;3.47;;;29.90;75.00;;;;;;4104771;28;20035;-70
2022/08/23 10:02:45;;;;;;;9.27;3.58;;;29.90;76.00;;;;;;4106499;28;20054;-70
2022/08/23 10:04:57;;;;;;;5.80;2.85;;;29.90;74.60;;;;;;4107284;28;20047;-70
2022/08/23 10:06:58;;;;;;;6.55;2.60;;;29.90;75.10;;;;;;4107152;28;20035;-70
2022/08/23 10:09:03;;;;;;;3.08;2.05;;;29.90;76.60;;;;;;4106311;28;20070;-70
2022/08/23 10:11:26;;;;;;;3.95;2.05;;;30.00;75.60;;;;;;4105197;28;20043;-71
2022/08/23 10:13:27;;;;;;;;;;;30.10;76.40;;;;;;4109157;28;20116;-68
2022/08/23 10:15:48;;;;;;;5.28;2.65;;;30.00;73.80;;;;;;4107634;28;20005;-69
2022/08/23 10:17:57;;;;;;;5.28;2.20;;;30.10;74.40;;;;;;4109606;28;20071;-69
2022/08/23 10:20:04;;;;;;;5.32;2.50;;;30.10;74.50;;;;;;4107437;28;20046;-68
2022/08/23 10:22:16;;;;;;;3.85;2.30;;;30.10;73.20;;;;;;4108619;28;20049;-68
2022/08/23 10:24:38;;;;;;;5.07;2.70;;;30.10;73.40;;;;;;4108755;28;20046;-69
2022/08/23 10:29:35;;;;;;;7.22;2.70;;;30.10;73.50;;;;;;4106349;28;20045;-70
2022/08/23 10:29:41;;;;;;;3.53;2.25;;;30.10;73.20;;;;;;4107042;28;20050;-69
2022/08/23 10:32:06;;;;;;;6.18;2.72;;;30.20;76.00;;;;;;4107349;28;20035;-69
2022/08/23 10:34:28;;;;;;;3.72;2.22;;;30.20;74.30;;;;;;4106428;28;20038;-73
2022/08/23 10:36:55;;;;;;;4.55;2.67;;;30.20;73.20;;;;;;4108451;28;20043;-70
2022/08/23 10:39:00;;;;;;;5.57;2.50;;;30.20;74.50;;;;;;4107839;28;20035;-69
2022/08/23 10:41:32;;;;;;;4.57;2.28;;;30.20;73.30;;;;;;4111303;28;20038;-69
2022/08/23 10:44:05;;;;;;;3.43;2.07;;;30.30;72.60;;;;;;4109004;28;20054;-69
2022/08/23 10:46:07;;;;;;;4.43;2.08;;;30.30;75.60;;;;;;4109459;28;20413;-70
2022/08/23 10:48:27;;;;;;;4.43;2.10;;;30.40;74.30;;;;;;4110486;28;20069;-69
2022/08/23 10:50:42;;;;;;;8.63;2.95;;;30.50;72.20;;;;;;4108075;28;20101;-70
2022/08/23 10:53:07;;;;;;;2.90;1.80;;;30.50;72.40;;;;;;4109320;28;20110;-69
2022/08/23 10:55:34;;;;;;;5.75;2.42;;;30.50;71.10;;;;;;4108880;28;20046;-71
2022/08/23 10:57:40;;;;;;;8.15;2.70;;;30.50;71.50;;;;;;4109951;28;20142;-70
2022/08/23 10:59:44;;;;;;;3.63;1.88;;;30.40;69.20;;;;;;4107225;28;20023;-69